Time;durP1;ratioP1;P1;durP2;ratioP2;P2;SDS_P1;SDS_P2;PMS_P1;PMS_P2;Temp;Humidity;BMP_temperature;BMP_pressure;BME280_temperature;BME280_humidity;BME280_pressure;Samples;Min_cycle;Max_cycle;Signal;HPM_P1;HPM_P2
2021/11/01 00:00:35;;;;;;;;;;;9.50;61.20;;;;;;6276268;22;20230;-67
2021/11/01 00:03:02;;;;;;;;;;;9.50;61.20;;;;;;6274583;22;19899;-67
2021/11/01 00:05:28;;;;;;;;;;;9.50;61.20;;;;;;6276245;22;19929;-66
2021/11/01 00:07:53;;;;;;;;;;;9.50;61.30;;;;;;6276098;22;19952;-66
2021/11/01 00:10:20;;;;;;;;;;;9.50;61.40;;;;;;6276072;22;19906;-67
2021/11/01 00:12:46;;;;;;;;;;;9.50;61.60;;;;;;6274252;22;19899;-67
2021/11/01 00:15:12;;;;;;;;;;;9.50;61.70;;;;;;6276027;22;19926;-65
2021/11/01 00:17:38;;;;;;;;;;;9.50;61.70;;;;;;6276063;22;19982;-66
2021/11/01 00:20:05;;;;;;;;;;;9.50;61.80;;;;;;6276091;22;20330;-66
2021/11/01 00:22:32;;;;;;;;;;;9.50;61.80;;;;;;6276062;22;19935;-66
2021/11/01 00:24:58;;;;;;;;;;;9.50;61.80;;;;;;6276062;22;20025;-66
2021/11/01 00:27:23;;;;;;;;;;;9.50;61.90;;;;;;6275937;22;20319;-65
2021/11/01 00:29:49;;;;;;;;;;;9.50;62.00;;;;;;6276103;22;20226;-66
2021/11/01 00:32:15;;;;;;;;;;;9.50;62.00;;;;;;6275262;22;20211;-66
2021/11/01 00:34:42;;;;;;;;;;;9.40;61.90;;;;;;6277956;22;19910;-65
2021/11/01 00:37:08;;;;;;;;;;;9.40;62.20;;;;;;6277835;22;19981;-66
2021/11/01 00:39:34;;;;;;;;;;;9.40;62.30;;;;;;6276338;22;19899;-65
2021/11/01 00:41:59;;;;;;;;;;;9.40;62.20;;;;;;6277720;22;19899;-67
2021/11/01 00:44:25;;;;;;;;;;;9.40;62.20;;;;;;6277765;22;20233;-65
2021/11/01 00:46:51;;;;;;;;;;;9.40;62.10;;;;;;6277703;22;19906;-65
2021/11/01 00:49:16;;;;;;;;;;;9.40;62.10;;;;;;6277896;22;19974;-66
2021/11/01 00:51:43;;;;;;;;;;;9.40;62.10;;;;;;6277640;22;19906;-64
2021/11/01 00:54:09;;;;;;;;;;;9.40;62.10;;;;;;6277738;22;19922;-66
2021/11/01 00:56:36;;;;;;;;;;;9.40;62.00;;;;;;6277773;22;20337;-65
2021/11/01 00:59:02;;;;;;;;;;;9.40;62.00;;;;;;6277593;22;19985;-65
2021/11/01 01:01:28;;;;;;;;;;;9.30;62.00;;;;;;6277749;22;19900;-65
2021/11/01 01:03:54;;;;;;;;;;;9.30;62.00;;;;;;6277498;22;20333;-64
2021/11/01 01:06:19;;;;;;;;;;;9.30;62.00;;;;;;6277527;22;19973;-65
2021/11/01 01:08:45;;;;;;;;;;;9.30;62.00;;;;;;6277434;22;19922;-65
2021/11/01 01:11:10;;;;;;;;;;;9.30;62.00;;;;;;6277536;22;19906;-66
2021/11/01 01:13:37;;;;;;;;;;;9.30;62.00;;;;;;6277179;22;19995;-65
2021/11/01 01:18:36;;;;;;;;;;;9.20;62.00;;;;;;6277776;22;19903;-64
2021/11/01 01:22:11;;;;;;;;;;;9.20;62.00;;;;;;6277408;22;19899;-65
2021/11/01 01:23:48;;;;;;;;;;;9.20;62.10;;;;;;6277065;22;19945;-65
2021/11/01 01:26:15;;;;;;;;;;;9.20;62.10;;;;;;6277316;22;20278;-66
2021/11/01 01:28:41;;;;;;;;;;;9.20;62.10;;;;;;6277323;22;20337;-65
2021/11/01 01:31:07;;;;;;;;;;;9.10;62.00;;;;;;6277216;22;20027;-65
2021/11/01 01:33:32;;;;;;;;;;;9.10;62.10;;;;;;6276935;22;20277;-66
2021/11/01 01:35:58;;;;;;;;;;;9.10;62.00;;;;;;6277235;22;19949;-65
2021/11/01 01:38:24;;;;;;;;;;;9.10;62.10;;;;;;6276974;22;19903;-65
2021/11/01 01:40:49;;;;;;;;;;;9.10;62.20;;;;;;6277184;22;20337;-65
2021/11/01 01:43:15;;;;;;;;;;;9.10;62.20;;;;;;6276760;22;19903;-65
2021/11/01 01:45:41;;;;;;;;;;;9.10;62.30;;;;;;6277519;22;19915;-66
2021/11/01 01:48:08;;;;;;;;;;;9.10;62.30;;;;;;6277160;22;20269;-65
2021/11/01 01:50:33;;;;;;;;;;;9.00;62.20;;;;;;6277191;22;20235;-65
2021/11/01 01:52:59;;;;;;;;;;;9.00;62.20;;;;;;6276909;22;19906;-64
2021/11/01 01:55:25;;;;;;;;;;;9.00;62.20;;;;;;6277036;22;19899;-64
2021/11/01 01:57:52;;;;;;;;;;;9.00;62.20;;;;;;6277020;22;19903;-65
2021/11/01 02:03:02;;;;;;;;;;;9.00;62.30;;;;;;6276923;22;19968;-66
2021/11/01 02:05:35;;;;;;;;;;;9.00;62.50;;;;;;6276672;22;19899;-65
2021/11/01 02:08:05;;;;;;;;;;;9.00;62.60;;;;;;6276892;22;19986;-66
2021/11/01 02:10:34;;;;;;;;;;;8.90;62.60;;;;;;6276682;22;19953;-65
2021/11/01 02:13:06;;;;;;;;;;;8.90;62.60;;;;;;6274984;22;19907;-66
2021/11/01 02:15:40;;;;;;;;;;;8.90;62.70;;;;;;6276776;22;20280;-65
2021/11/01 02:18:07;;;;;;;;;;;8.90;62.70;;;;;;6276583;22;19910;-66
2021/11/01 02:20:35;;;;;;;;;;;8.90;62.80;;;;;;6276706;22;19899;-64
2021/11/01 02:23:10;;;;;;;;;;;8.90;62.80;;;;;;6276606;22;19957;-65
2021/11/01 02:25:40;;;;;;;;;;;8.90;62.70;;;;;;6276709;22;19900;-65
2021/11/01 02:28:08;;;;;;;;;;;8.90;62.80;;;;;;6276675;22;19899;-65
2021/11/01 02:30:35;;;;;;;;;;;8.90;62.80;;;;;;6276580;22;20338;-66
2021/11/01 02:33:01;;;;;;;;;;;8.90;62.70;;;;;;6276714;22;20275;-65
2021/11/01 02:35:27;;;;;;;;;;;8.80;62.70;;;;;;6276682;22;19961;-65
2021/11/01 02:37:53;;;;;;;;;;;8.80;62.80;;;;;;6276545;22;19907;-64
2021/11/01 02:40:24;;;;;;;;;;;8.80;62.90;;;;;;6276540;22;19899;-64
2021/11/01 02:42:50;;;;;;;;;;;8.80;62.90;;;;;;6276577;22;19982;-66
2021/11/01 02:45:17;;;;;;;;;;;8.80;62.90;;;;;;6276440;22;19899;-66
2021/11/01 02:47:43;;;;;;;;;;;8.80;62.90;;;;;;6274838;22;19900;-66
2021/11/01 02:50:11;;;;;;;;;;;8.80;63.00;;;;;;6276518;22;19907;-64
2021/11/01 02:52:36;;;;;;;;;;;8.70;63.10;;;;;;6276396;22;20334;-65
2021/11/01 02:55:05;;;;;;;;;;;8.70;63.10;;;;;;6274508;22;19900;-66
2021/11/01 02:57:31;;;;;;;;;;;8.70;63.10;;;;;;6276241;22;20341;-66
2021/11/01 02:59:56;;;;;;;;;;;8.70;63.10;;;;;;6276637;22;19928;-65
2021/11/01 03:02:22;;;;;;;;;;;8.70;63.10;;;;;;6276621;22;19899;-66
2021/11/01 03:04:48;;;;;;;;;;;8.70;63.10;;;;;;6274933;22;20266;-66
2021/11/01 03:07:14;;;;;;;;;;;8.70;63.10;;;;;;6276571;22;20008;-66
2021/11/01 03:09:41;;;;;;;;;;;8.70;63.10;;;;;;6276364;22;19906;-66
2021/11/01 03:12:08;;;;;;;;;;;8.70;63.10;;;;;;6276397;22;19899;-66
2021/11/01 03:14:40;;;;;;;;;;;8.70;63.20;;;;;;6274574;22;20315;-66
2021/11/01 03:17:07;;;;;;;;;;;8.70;63.20;;;;;;6276285;22;20339;-66
2021/11/01 03:19:33;;;;;;;;;;;8.60;63.20;;;;;;6276354;22;20270;-67
2021/11/01 03:22:02;;;;;;;;;;;8.60;63.10;;;;;;6276132;22;19895;-65
2021/11/01 03:24:33;;;;;;;;;;;8.60;63.10;;;;;;6276291;22;19906;-65
2021/11/01 03:26:59;;;;;;;;;;;8.60;63.10;;;;;;6276271;22;19942;-65
2021/11/01 03:29:25;;;;;;;;;;;8.60;63.10;;;;;;6276239;22;19968;-66
2021/11/01 03:31:51;;;;;;;;;;;8.60;63.20;;;;;;6276246;22;19901;-66
2021/11/01 03:34:18;;;;;;;;;;;8.50;63.10;;;;;;6276295;22;20297;-66
2021/11/01 03:36:44;;;;;;;;;;;8.50;63.80;;;;;;6276295;22;19970;-67
2021/11/01 03:39:13;;;;;;;;;;;8.50;63.00;;;;;;6276121;22;19946;-66
2021/11/01 03:41:40;;;;;;;;;;;8.50;63.10;;;;;;6276241;22;19900;-66
2021/11/01 03:44:07;;;;;;;;;;;8.50;63.10;;;;;;6276240;22;19899;-65
2021/11/01 03:46:49;;;;;;;;;;;8.50;63.10;;;;;;6276197;22;19906;-66
2021/11/01 03:49:15;;;;;;;;;;;8.50;63.10;;;;;;6276231;22;19899;-65
2021/11/01 03:54:26;;;;;;;;;;;8.50;63.00;;;;;;6276198;22;19968;-65
2021/11/01 03:56:52;;;;;;;;;;;8.40;62.90;;;;;;6275973;22;20330;-66
2021/11/01 03:59:18;;;;;;;;;;;8.40;62.90;;;;;;6275984;22;20355;-65
2021/11/01 04:01:45;;;;;;;;;;;8.40;63.00;;;;;;6276120;22;19926;-67
2021/11/01 04:04:11;;;;;;;;;;;8.40;62.90;;;;;;6276118;22;19899;-66
2021/11/01 04:06:41;;;;;;;;;;;8.40;63.00;;;;;;6276527;22;19899;-65
2021/11/01 04:09:08;;;;;;;;;;;8.40;63.00;;;;;;6278086;22;19942;-65
2021/11/01 04:11:35;;;;;;;;;;;8.40;63.00;;;;;;6278074;22;20223;-64
2021/11/01 04:14:03;;;;;;;;;;;8.30;62.90;;;;;;6277793;22;19911;-65
2021/11/01 04:16:43;;;;;;;;;;;8.30;63.00;;;;;;6278049;22;19899;-66
2021/11/01 04:21:45;;;;;;;;;;;8.30;63.00;;;;;;6278565;22;19906;-67
2021/11/01 04:24:11;;;;;;;;;;;8.30;63.00;;;;;;6277933;22;19905;-67
2021/11/01 04:26:36;;;;;;;;;;;8.30;63.00;;;;;;6277964;22;19986;-66
2021/11/01 04:29:06;;;;;;;;;;;8.30;63.00;;;;;;6277742;22;19906;-66
2021/11/01 04:31:34;;;;;;;;;;;8.30;63.10;;;;;;6277965;22;19949;-65
2021/11/01 04:34:07;;;;;;;;;;;8.20;63.00;;;;;;6277838;22;19899;-66
2021/11/01 04:36:33;;;;;;;;;;;8.20;63.00;;;;;;6277789;22;20311;-66
2021/11/01 04:42:26;;;;;;;;;;;8.20;63.20;;;;;;6278206;22;19952;-66
2021/11/01 04:54:55;;;;;;;;;;;8.20;63.20;;;;;;6277714;22;19906;-65
2021/11/01 04:57:21;;;;;;;;;;;8.10;63.20;;;;;;6277488;22;19903;-66
2021/11/01 04:59:48;;;;;;;;;;;8.10;63.20;;;;;;6277980;22;19950;-66
2021/11/01 05:02:14;;;;;;;;;;;8.10;63.30;;;;;;6277571;22;19906;-66
2021/11/01 05:04:41;;;;;;;;;;;8.10;63.30;;;;;;6277449;22;19903;-65
2021/11/01 05:07:08;;;;;;;;;;;8.10;63.30;;;;;;6277428;22;19906;-65
2021/11/01 05:09:49;;;;;;;;;;;8.10;63.50;;;;;;6277391;22;19899;-67
2021/11/01 05:12:21;;;;;;;;;;;8.10;63.50;;;;;;6277481;22;20319;-66
2021/11/01 05:24:57;;;;;;;;;;;8.10;63.50;;;;;;6277725;22;20370;-66
2021/11/01 05:27:42;;;;;;;;;;;8.10;63.50;;;;;;6277326;22;20227;-66
2021/11/01 05:30:15;;;;;;;;;;;8.10;63.50;;;;;;6277268;22;19899;-66
2021/11/01 05:32:44;;;;;;;;;;;8.10;63.50;;;;;;6277176;22;19900;-66
2021/11/01 05:35:09;;;;;;;;;;;8.10;63.40;;;;;;6277140;22;19895;-65
2021/11/01 05:37:35;;;;;;;;;;;8.10;63.40;;;;;;6277105;22;19910;-66
2021/11/01 05:40:03;;;;;;;;;;;8.10;63.50;;;;;;6277165;22;20231;-65
2021/11/01 05:42:29;;;;;;;;;;;8.10;63.60;;;;;;6277253;22;19906;-66
2021/11/01 05:44:54;;;;;;;;;;;8.10;63.70;;;;;;6277147;22;19974;-66
2021/11/01 05:47:20;;;;;;;;;;;8.20;63.80;;;;;;6277098;22;20255;-65
2021/11/01 05:49:46;;;;;;;;;;;8.20;63.80;;;;;;6277030;22;20212;-67
2021/11/01 05:52:28;;;;;;;;;;;8.10;63.80;;;;;;6276912;22;19895;-66
2021/11/01 05:54:57;;;;;;;;;;;8.20;63.90;;;;;;6276937;22;19899;-65
2021/11/01 05:57:45;;;;;;;;;;;8.20;64.10;;;;;;6276938;22;19903;-65
2021/11/01 06:00:20;;;;;;;;;;;8.20;64.30;;;;;;6277019;22;19906;-67
2021/11/01 06:02:54;;;;;;;;;;;8.20;64.40;;;;;;6277081;22;19922;-66
2021/11/01 06:10:39;;;;;;;;;;;8.40;64.60;;;;;;6277103;22;20281;-66
2021/11/01 06:15:49;;;;;;;;;;;8.40;64.70;;;;;;6276995;22;19926;-65
2021/11/01 06:18:15;;;;;;;;;;;8.50;64.80;;;;;;6276820;22;20236;-65
2021/11/01 06:20:40;;;;;;;;;;;8.60;64.90;;;;;;6276833;22;20230;-66
2021/11/01 06:23:07;;;;;;;;;;;8.60;65.70;;;;;;6276731;22;19903;-65
2021/11/01 06:25:33;;;;;;;;;;;8.70;65.00;;;;;;6276747;22;19899;-65
2021/11/01 06:27:58;;;;;;;;;;;8.80;65.10;;;;;;6276723;22;19922;-66
2021/11/01 06:30:27;;;;;;;;;;;8.90;65.00;;;;;;6276647;22;19899;-65
2021/11/01 06:41:04;;;;;;;;;;;9.10;64.30;;;;;;6276618;22;19925;-67
2021/11/01 07:15:36;;;;;;;;;;;9.70;64.60;;;;;;6276390;22;19910;-65
2021/11/01 07:18:19;;;;;;;;;;;9.80;64.50;;;;;;6276225;22;19902;-66
2021/11/01 08:23:40;;;;;;;;;;;11.00;63.80;;;;;;6278366;22;19902;-66
2021/11/01 08:26:32;;;;;;;;;;;11.10;63.80;;;;;;6277529;22;19899;-65
2021/11/01 08:39:38;;;;;;;;;;;11.50;63.00;;;;;;6278521;22;19933;-69
2021/11/01 08:42:28;;;;;;;;;;;11.60;62.80;;;;;;6278025;22;19900;-65
2021/11/01 08:47:43;;;;;;;;;;;11.70;62.70;;;;;;6278602;22;19907;-66
2021/11/01 09:03:50;;;;;;;;;;;12.30;62.40;;;;;;6277862;22;19902;-67
2021/11/01 09:06:30;;;;;;;;;;;12.30;62.20;;;;;;6277902;22;20212;-66
2021/11/01 09:20:13;;;;;;;;;;;12.90;61.80;;;;;;6277586;22;19906;-68
2021/11/01 09:26:27;;;;;;;;;;;13.00;61.00;;;;;;6214455;23;19900;-67
2021/11/01 09:28:38;;;;;;;;;;;13.10;61.00;;;;;;6205940;23;19920;-67
2021/11/01 09:36:42;;;;;;;;;;;13.30;60.70;;;;;;6213639;23;19926;-67
2021/11/01 09:42:09;;;;;;;;;;;13.40;60.00;;;;;;6183908;23;19904;-68
2021/11/01 09:44:35;;;;;;;;;;;13.50;59.80;;;;;;6207200;23;19982;-67
2021/11/01 09:47:01;;;;;;;;;;;13.50;60.40;;;;;;6213495;23;20347;-67
2021/11/01 09:49:27;;;;;;;;;;;13.50;59.50;;;;;;6213549;23;19903;-68
2021/11/01 09:51:55;;;;;;;;;;;13.50;59.40;;;;;;6213464;23;19983;-69
2021/11/01 09:54:25;;;;;;;;;;;13.40;59.40;;;;;;6213461;23;19900;-67
2021/11/01 09:59:34;;;;;;;;;;;13.40;59.30;;;;;;6240241;22;19907;-66
2021/11/01 10:02:00;;;;;;;;;;;13.40;59.50;;;;;;6277189;22;19903;-66
2021/11/01 10:04:27;;;;;;;;;;;13.40;59.60;;;;;;6276822;22;20281;-67
2021/11/01 10:07:18;;;;;;;;;;;13.40;59.70;;;;;;6277149;22;20318;-67
2021/11/01 10:09:45;;;;;;;;;;;13.40;59.80;;;;;;6275475;22;20311;-68
2021/11/01 10:12:33;;;;;;;;;;;13.50;59.80;;;;;;6277056;22;20373;-67
2021/11/01 10:17:58;;;;;;;;;;;13.60;59.80;;;;;;6276982;22;20011;-67
2021/11/01 10:20:24;;;;;;;;;;;13.60;59.90;;;;;;6275415;22;20290;-68
2021/11/01 10:22:50;;;;;;;;;;;13.70;59.90;;;;;;6277240;22;19899;-66
2021/11/01 10:25:17;;;;;;;;;;;13.70;59.80;;;;;;6276834;22;20207;-67
2021/11/01 10:27:47;;;;;;;;;;;13.80;59.70;;;;;;6275412;22;19974;-66
2021/11/01 10:30:14;;;;;;;;;;;13.80;59.40;;;;;;6276870;22;19899;-66
2021/11/01 10:32:44;;;;;;;;;;;13.80;59.20;;;;;;6276834;22;19899;-68
2021/11/01 10:35:32;;;;;;;;;;;13.80;59.20;;;;;;6276773;22;19918;-67
2021/11/01 10:38:08;;;;;;;;;;;13.80;59.10;;;;;;6276731;22;20275;-67
2021/11/01 10:40:36;;;;;;;;;;;13.80;59.00;;;;;;6276794;22;19899;-66
2021/11/01 10:56:53;;;;;;;;;;;13.70;58.90;;;;;;6276770;22;19978;-68
2021/11/01 11:15:21;;;;;;;;;;;13.70;59.20;;;;;;6277325;22;19907;-68
2021/11/01 11:18:03;;;;;;;;;;;13.80;59.20;;;;;;6275972;22;19907;-68
2021/11/01 11:32:03;;;;;;;;;;;13.80;58.90;;;;;;6277157;22;20153;-67
2021/11/01 11:47:26;;;;;;;;;;;13.80;58.90;;;;;;6220440;22;19912;-67
2021/11/01 11:49:53;;;;;;;;;;;13.80;58.80;;;;;;6274006;22;20230;-66
2021/11/01 11:52:21;;;;;;;;;;;13.80;58.90;;;;;;6276154;22;19977;-68
2021/11/01 11:54:52;;;;;;;;;;;13.80;58.90;;;;;;6276219;22;19906;-66
2021/11/01 11:57:18;;;;;;;;;;;13.80;58.90;;;;;;6276114;22;19903;-66
2021/11/01 11:59:46;;;;;;;;;;;13.80;58.90;;;;;;6274656;22;19900;-66
2021/11/01 12:02:12;;;;;;;;;;;13.80;58.90;;;;;;6276135;22;19900;-66
2021/11/01 12:04:49;;;;;;;;;;;13.90;58.90;;;;;;6276080;22;19900;-66
2021/11/01 12:07:16;;;;;;;;;;;13.90;58.90;;;;;;6276155;22;19899;-68
2021/11/01 12:09:58;;;;;;;;;;;13.90;58.90;;;;;;6276060;22;19906;-67
2021/11/01 12:12:56;;;;;;;;;;;14.00;59.00;;;;;;6276097;22;19900;-68
2021/11/01 12:18:00;;;;;;;;;;;14.10;59.00;;;;;;6276282;22;19918;-65
2021/11/01 12:20:26;;;;;;;;;;;14.10;58.90;;;;;;6275989;22;20280;-67
2021/11/01 12:22:59;;;;;;;;;;;14.20;58.90;;;;;;6275952;22;20342;-65
2021/11/01 12:25:27;;;;;;;;;;;14.20;58.90;;;;;;6275911;22;19992;-66
2021/11/01 12:28:00;;;;;;;;;;;14.30;58.80;;;;;;6249874;22;19946;-67
2021/11/01 12:30:45;;;;;;;;;;;14.30;58.80;;;;;;6277701;22;19903;-65
2021/11/01 12:33:12;;;;;;;;;;;14.40;58.70;;;;;;6276000;22;19926;-67
2021/11/01 12:35:48;;;;;;;;;;;14.50;58.70;;;;;;6277924;22;19945;-67
2021/11/01 12:38:21;;;;;;;;;;;14.50;58.60;;;;;;6277789;22;19928;-66
2021/11/01 12:57:03;;;;;;;;;;;14.80;58.30;;;;;;6277895;22;19906;-67
2021/11/01 12:59:40;;;;;;;;;;;14.90;58.50;;;;;;6277761;22;19910;-68
2021/11/01 13:02:16;;;;;;;;;;;15.00;58.50;;;;;;6277729;22;19978;-67
2021/11/01 13:04:46;;;;;;;;;;;15.10;58.30;;;;;;6277683;22;20231;-66
2021/11/01 13:07:28;;;;;;;;;;;15.20;58.00;;;;;;6276114;22;20281;-67
2021/11/01 13:09:56;;;;;;;;;;;15.30;57.60;;;;;;6277785;22;19953;-67
2021/11/01 13:17:49;;;;;;;;;;;15.30;57.20;;;;;;6277275;22;20334;-67
2021/11/01 13:20:30;;;;;;;;;;;15.30;57.10;;;;;;6278711;22;20406;-67
2021/11/01 13:22:59;;;;;;;;;;;15.20;56.90;;;;;;6277463;22;19938;-68
2021/11/01 13:25:35;;;;;;;;;;;15.20;56.90;;;;;;6277385;22;19899;-68
2021/11/01 13:36:48;;;;;;;;;;;15.00;56.60;;;;;;6277829;22;20010;-68
2021/11/01 13:39:26;;;;;;;;;;;14.90;56.70;;;;;;6276811;22;19903;-68
2021/11/01 13:41:52;;;;;;;;;;;14.90;56.90;;;;;;6277335;22;19905;-68
2021/11/01 13:44:22;;;;;;;;;;;14.80;56.90;;;;;;6277210;22;19966;-67
2021/11/01 13:47:07;;;;;;;;;;;14.80;56.90;;;;;;6277230;22;20293;-69
2021/11/01 13:49:34;;;;;;;;;;;14.80;56.90;;;;;;6277199;22;20315;-68
2021/11/01 13:52:53;;;;;;;;;;;14.80;57.00;;;;;;6277031;22;19900;-66
2021/11/01 13:55:06;;;;;;;;;;;14.80;57.00;;;;;;6268697;22;19899;-68
2021/11/01 13:57:39;;;;;;;;;;;14.80;57.10;;;;;;6277080;22;20405;-66
2021/11/01 14:00:24;;;;;;;;;;;14.90;57.10;;;;;;6277012;22;19906;-66
2021/11/01 14:31:02;;;;;;;;;;;14.80;56.80;;;;;;6276866;22;20292;-67
2021/11/01 15:22:09;;;;;;;;;;;14.30;56.90;;;;;;6276958;22;19899;-67
2021/11/01 16:18:39;;;;;;;;;;;13.70;58.40;;;;;;6278041;22;19910;-68
2021/11/01 16:21:05;;;;;;;;;;;13.70;58.20;;;;;;6277991;22;20311;-66
2021/11/01 16:23:36;;;;;;;;;;;13.70;58.20;;;;;;6277971;22;19921;-67
2021/11/01 16:26:12;;;;;;;;;;;13.70;58.20;;;;;;6277925;22;19957;-68
2021/11/01 16:28:37;;;;;;;;;;;13.70;58.30;;;;;;6277906;22;19899;-67
2021/11/01 16:31:22;;;;;;;;;;;13.70;58.30;;;;;;6277755;22;19899;-68
2021/11/01 16:33:50;;;;;;;;;;;13.70;58.30;;;;;;6277957;22;19930;-67
2021/11/01 16:39:10;;;;;;;;;;;13.70;59.00;;;;;;6245344;22;19902;-67
2021/11/01 16:41:36;;;;;;;;;;;13.70;58.40;;;;;;6276153;22;20311;-66
2021/11/01 16:44:14;;;;;;;;;;;13.70;58.40;;;;;;6277723;22;19906;-67
2021/11/01 16:46:45;;;;;;;;;;;13.70;58.50;;;;;;6277721;22;19922;-66
2021/11/01 16:49:11;;;;;;;;;;;13.70;58.60;;;;;;6277787;22;19899;-66
2021/11/01 16:51:39;;;;;;;;;;;13.70;58.80;;;;;;6277634;22;19949;-66
2021/11/01 16:54:06;;;;;;;;;;;13.70;58.80;;;;;;6277757;22;19930;-66
2021/11/01 16:56:56;;;;;;;;;;;13.70;58.90;;;;;;6277560;22;19899;-66
2021/11/01 17:02:03;;;;;;;;;;;13.70;58.80;;;;;;6278422;22;19900;-67
2021/11/01 17:04:31;;;;;;;;;;;13.70;58.90;;;;;;6277396;22;20258;-67
2021/11/01 17:07:07;;;;;;;;;;;13.70;58.90;;;;;;6277600;22;19899;-67
2021/11/01 17:21:35;;;;;;;;;;;13.70;59.00;;;;;;6277486;22;19906;-67
2021/11/01 17:26:00;;;;;;;;;;;13.70;59.10;;;;;;6277972;22;19900;-67
2021/11/01 17:29:04;;;;;;;;;;;13.70;59.10;;;;;;6277346;22;19903;-66
2021/11/01 18:51:05;;;;;;;;;;;13.30;60.70;;;;;;6276584;22;19922;-66
2021/11/01 18:53:36;;;;;;;;;;;13.30;60.80;;;;;;6276501;22;19924;-67
2021/11/01 18:56:03;;;;;;;;;;;13.30;60.90;;;;;;6276524;22;19933;-68
2021/11/01 18:58:31;;;;;;;;;;;13.20;60.90;;;;;;6274924;22;20238;-68
2021/11/01 19:00:58;;;;;;;;;;;13.20;61.00;;;;;;6276543;22;19906;-67
2021/11/01 19:03:25;;;;;;;;;;;13.20;61.00;;;;;;6276465;22;19970;-67
2021/11/01 19:06:45;;;;;;;;;;;13.20;61.10;;;;;;6276306;22;19938;-66
2021/11/01 20:06:32;;;;;;;;;;;12.60;63.80;;;;;;6276460;22;19899;-69
2021/11/01 20:09:31;;;;;;;;;;;12.60;63.90;;;;;;6276183;22;19895;-69
2021/11/01 21:26:19;;;;;;;;;;;12.30;67.10;;;;;;6277589;22;20023;-67
2021/11/01 21:28:45;;;;;;;;;;;12.30;67.10;;;;;;6277519;22;19906;-67
2021/11/01 21:31:11;;;;;;;;;;;12.30;67.20;;;;;;6277515;22;20239;-67
2021/11/01 21:33:37;;;;;;;;;;;12.30;67.20;;;;;;6276030;22;20033;-68
2021/11/01 21:36:06;;;;;;;;;;;12.30;67.20;;;;;;6277418;22;20318;-66
2021/11/01 21:38:32;;;;;;;;;;;12.30;67.20;;;;;;6275629;22;19910;-67
2021/11/01 21:40:57;;;;;;;;;;;12.30;67.40;;;;;;6277364;22;19899;-67
2021/11/01 21:43:23;;;;;;;;;;;12.30;67.60;;;;;;6277259;22;19906;-67
2021/11/01 21:45:49;;;;;;;;;;;12.30;67.80;;;;;;6277297;22;19985;-66
2021/11/01 21:48:15;;;;;;;;;;;12.20;68.20;;;;;;6277398;22;20335;-67
2021/11/01 21:50:47;;;;;;;;;;;12.20;68.30;;;;;;6275546;22;19900;-68
2021/11/01 21:53:14;;;;;;;;;;;12.20;68.40;;;;;;6277178;22;19899;-68
2021/11/01 21:55:41;;;;;;;;;;;12.10;68.50;;;;;;6277611;22;20285;-67
2021/11/01 21:58:31;;;;;;;;;;;12.10;68.80;;;;;;6275484;22;19910;-68
2021/11/01 22:18:29;;;;;;;;;;;12.20;70.70;;;;;;6213936;23;19910;-68
2021/11/01 22:21:05;;;;;;;;;;;12.20;70.80;;;;;;6213540;23;19906;-67
2021/11/01 22:39:10;;;;;;;;;;;12.20;72.20;;;;;;6276827;22;19956;-69
2021/11/01 22:41:43;;;;;;;;;;;12.30;71.50;;;;;;6276738;22;19899;-68
2021/11/01 22:47:09;;;;;;;;;;;12.30;71.50;;;;;;6276716;22;20380;-67
2021/11/01 22:57:35;;;;;;;;;;;12.30;71.80;;;;;;6276592;22;19906;-68
2021/11/01 23:00:01;;;;;;;;;;;12.40;71.90;;;;;;6276641;22;19907;-67
2021/11/01 23:02:28;;;;;;;;;;;12.40;71.90;;;;;;6275071;22;19906;-68
2021/11/01 23:05:21;;;;;;;;;;;12.40;71.90;;;;;;6274953;22;20311;-69
2021/11/01 23:32:25;;;;;;;;;;;12.30;71.90;;;;;;6276295;22;19906;-67
2021/11/01 23:34:51;;;;;;;;;;;12.30;71.90;;;;;;6276263;22;19895;-67
2021/11/01 23:37:19;;;;;;;;;;;12.30;71.90;;;;;;6276312;22;19899;-67
2021/11/01 23:39:44;;;;;;;;;;;12.30;71.90;;;;;;6276153;22;19904;-68
2021/11/01 23:42:10;;;;;;;;;;;12.20;71.80;;;;;;6276313;22;19899;-66
2021/11/01 23:44:35;;;;;;;;;;;12.20;71.90;;;;;;6276291;22;20227;-68
2021/11/01 23:47:01;;;;;;;;;;;12.20;71.90;;;;;;6276251;22;19899;-67
2021/11/01 23:49:27;;;;;;;;;;;12.20;71.90;;;;;;6274675;22;19906;-68
2021/11/01 23:52:03;;;;;;;;;;;12.20;72.00;;;;;;6276146;22;19905;-66
2021/11/01 23:54:42;;;;;;;;;;;12.20;72.10;;;;;;6274646;22;20390;-68
2021/11/01 23:57:08;;;;;;;;;;;12.20;72.00;;;;;;6276278;22;19909;-67
2021/11/01 23:59:34;;;;;;;;;;;12.20;72.00;;;;;;6276137;22;19941;-68
